Terminal Aerodrome Forecast
Issued by NWS Twin Cities, MN

Home | Current Version | Previous Version | Text Only | Print | Product List | Glossary Off
Versions: 1 2 3 4 5 6 7 8 9 10 11 12 13 14 15 16 17 18 19 20 21 22 23 24 25 26

000
FTUS43 KMPX 281139
TAFEAU
TAF
KEAU 281139Z 2812/2912 20005KT 6SM -RA OVC070
     FM281500 17009KT 6SM -RA VCTS BKN035CB OVC050
     FM282000 12008KT 6SM -RA SCT025 OVC050
     FM290000 03005KT P6SM SCT060=

USA.gov is the U.S. government's official web portal to all federal, state and local government web resources and services.